createdAt,value
2018-05-17T00:00:04.905Z,43
2018-05-17T00:15:04.368Z,43
2018-05-17T00:30:04.625Z,43
2018-05-17T00:45:04.879Z,43
2018-05-17T01:00:05.568Z,42
2018-05-17T01:15:05.380Z,42
2018-05-17T01:30:05.075Z,43
2018-05-17T01:45:04.883Z,42
2018-05-17T02:00:04.849Z,42
2018-05-17T02:15:04.514Z,41
2018-05-17T02:30:04.608Z,42
2018-05-17T02:45:04.923Z,43
2018-05-17T03:00:04.461Z,43
2018-05-17T03:15:05.195Z,43
2018-05-17T03:30:04.971Z,42
2018-05-17T03:45:05.047Z,42
2018-05-17T04:00:04.960Z,44
2018-05-17T04:15:04.628Z,45
2018-05-17T04:30:05.290Z,45
2018-05-17T04:45:05.308Z,45
2018-05-17T05:00:04.681Z,48
2018-05-17T05:15:04.679Z,51
2018-05-17T05:30:04.838Z,50
2018-05-17T05:45:04.751Z,48
2018-05-17T06:00:04.709Z,50
2018-05-17T06:15:05.354Z,54
2018-05-17T06:30:04.973Z,51
2018-05-17T06:45:05.093Z,49
2018-05-17T07:00:04.919Z,50
2018-05-17T07:15:04.409Z,50
2018-05-17T07:30:04.978Z,46
2018-05-17T07:45:04.520Z,48
2018-05-17T08:00:04.503Z,47
2018-05-17T08:15:04.459Z,47
2018-05-17T08:30:04.583Z,47
2018-05-17T08:45:04.551Z,47
2018-05-17T09:00:04.528Z,45
2018-05-17T09:15:04.352Z,47
2018-05-17T09:30:04.463Z,47
2018-05-17T09:45:04.993Z,47
2018-05-17T10:00:04.500Z,46
2018-05-17T10:15:05.029Z,48
2018-05-17T10:30:04.634Z,45
2018-05-17T10:45:05.136Z,45
2018-05-17T11:00:04.659Z,45
2018-05-17T11:15:04.515Z,45
2018-05-17T11:30:05.199Z,44
2018-05-17T11:45:04.782Z,45
2018-05-17T12:00:04.928Z,46
2018-05-17T12:15:04.394Z,44
2018-05-17T12:30:04.995Z,44
2018-05-17T12:45:04.431Z,46
2018-05-17T13:00:04.407Z,44
2018-05-17T13:15:04.373Z,46
2018-05-17T13:30:04.601Z,46
2018-05-17T13:45:04.579Z,45
2018-05-17T14:00:04.498Z,46
2018-05-17T14:15:05.021Z,46
2018-05-17T14:30:04.620Z,44
2018-05-17T14:45:05.080Z,47
2018-05-17T15:00:04.582Z,46
2018-05-17T15:15:04.586Z,50
2018-05-17T15:30:06.517Z,46
2018-05-17T15:45:04.704Z,47
2018-05-17T16:00:05.202Z,48
2018-05-17T16:15:06.567Z,51
2018-05-17T16:30:04.683Z,52
2018-05-17T16:45:04.768Z,49
2018-05-17T17:00:04.604Z,49
2018-05-17T17:15:05.309Z,50
2018-05-17T17:30:05.213Z,49
2018-05-17T17:45:05.256Z,48
2018-05-17T18:00:04.715Z,49
2018-05-17T18:15:05.218Z,47
2018-05-17T18:30:04.885Z,47
2018-05-17T18:45:04.920Z,47
2018-05-17T19:00:04.852Z,47
2018-05-17T19:15:04.814Z,47
2018-05-17T19:30:04.847Z,49
2018-05-17T19:45:05.232Z,51
2018-05-17T20:00:05.291Z,49
2018-05-17T20:15:04.829Z,47
2018-05-17T20:30:05.195Z,48
2018-05-17T20:45:04.691Z,48
2018-05-17T21:00:05.321Z,46
2018-05-17T21:15:05.108Z,46
2018-05-17T21:30:05.508Z,47
2018-05-17T21:45:04.436Z,46
2018-05-17T22:00:04.973Z,46
2018-05-17T22:15:04.526Z,45
2018-05-17T22:30:04.866Z,45
2018-05-17T22:45:04.784Z,46
2018-05-17T23:00:05.482Z,45
2018-05-17T23:15:04.693Z,45
2018-05-17T23:30:04.801Z,45
2018-05-17T23:45:04.889Z,44
